Toddville, Iowa
Current Conditions -  °F | °C
As of 7:52 AM on Tuesday 21 Oct 2014 (Local Time) from KCID Reporting Station
Clear Clear  
Wind Chill: 37°   Ceiling: Unl
Heat Index: 37°   Visibility: 8mi
Dew Point: 36°   Wind: 0mph
Humidity: 96%   Direction: NA
Pressure: 30.15"   Gusts: NA
Location:  42.1°N, 91.72°W
Report Text: KCID 211252Z 00000KT 8SM CLR 03/02 A3015 RMK AO2 SLP216 T00280022
Loading
Personal Weather Stations






























Interactive Weather Map
Tropical Storm Tracking
New forecast layout! Learn more

10-Day Weather Forecast

Advertisements
Track Severe Weather on mobile